createdAt,value
2023-04-13T00:00:12.225Z,10.33
2023-04-13T00:02:41.215Z,10.33
2023-04-13T00:05:09.678Z,10.30
2023-04-13T00:07:40.178Z,10.28
2023-04-13T00:10:10.174Z,10.27
2023-04-13T00:12:38.149Z,10.25
2023-04-13T00:15:05.686Z,10.23
2023-04-13T00:17:37.352Z,10.21
2023-04-13T00:20:10.628Z,10.20
2023-04-13T00:22:37.825Z,10.19
2023-04-13T00:25:10.043Z,10.18
2023-04-13T00:27:40.463Z,10.18
2023-04-13T00:30:09.420Z,10.17
2023-04-13T00:32:51.760Z,10.16
2023-04-13T00:35:24.239Z,10.15
2023-04-13T00:37:51.929Z,10.16
2023-04-13T00:40:19.615Z,10.16
2023-04-13T00:42:49.260Z,10.17
2023-04-13T00:45:20.256Z,10.17
2023-04-13T00:47:50.062Z,10.17
2023-04-13T00:50:20.259Z,10.15
2023-04-13T00:52:48.229Z,10.17
2023-04-13T00:55:20.247Z,10.18
2023-04-13T00:57:51.951Z,10.18
2023-04-13T01:00:20.534Z,10.18
2023-04-13T01:03:02.046Z,10.17
2023-04-13T01:05:37.014Z,10.17
2023-04-13T01:08:14.345Z,10.16
2023-04-13T01:10:55.076Z,10.17
2023-04-13T01:13:42.016Z,10.18
2023-04-13T01:16:19.384Z,10.17
2023-04-13T01:18:50.055Z,10.18
2023-04-13T01:21:21.041Z,10.19
2023-04-13T01:23:48.606Z,10.19
2023-04-13T01:26:16.684Z,10.19
2023-04-13T01:28:47.592Z,10.18
2023-04-13T01:31:16.662Z,10.19
2023-04-13T01:33:43.438Z,10.19
2023-04-13T01:36:10.846Z,10.17
2023-04-13T01:38:39.462Z,10.17
2023-04-13T01:41:08.998Z,10.16
2023-04-13T01:43:38.452Z,10.14
2023-04-13T01:46:13.223Z,10.15
2023-04-13T01:48:49.930Z,10.14
2023-04-13T01:51:44.733Z,10.14
2023-04-13T01:54:17.057Z,10.14
2023-04-13T01:56:46.097Z,10.14
2023-04-13T01:59:13.287Z,10.15
2023-04-13T02:01:40.522Z,10.15
2023-04-13T02:04:15.210Z,10.14
2023-04-13T02:06:46.356Z,10.14
2023-04-13T02:09:13.913Z,10.12
2023-04-13T02:11:41.452Z,10.10
2023-04-13T02:14:18.145Z,10.09
2023-04-13T02:16:45.337Z,10.09
2023-04-13T02:19:14.192Z,10.08
2023-04-13T02:21:41.588Z,10.08
2023-04-13T02:24:08.631Z,10.07
2023-04-13T02:26:37.088Z,10.07
2023-04-13T02:29:05.112Z,10.08
2023-04-13T02:31:51.937Z,10.06
2023-04-13T02:34:18.805Z,10.05
2023-04-13T02:36:45.841Z,10.04
2023-04-13T02:39:15.945Z,10.06
2023-04-13T02:41:43.920Z,10.06
2023-04-13T02:44:17.256Z,10.05
2023-04-13T02:46:49.574Z,10.05
2023-04-13T02:49:17.994Z,10.04
2023-04-13T02:51:55.580Z,10.03
2023-04-13T02:54:31.046Z,10.04
2023-04-13T02:56:58.717Z,10.04
2023-04-13T02:59:27.892Z,10.04
2023-04-13T03:01:58.047Z,10.04
2023-04-13T03:04:27.138Z,10.02
2023-04-13T03:06:54.380Z,10.03
2023-04-13T03:09:23.264Z,10.02
2023-04-13T03:11:58.170Z,10.02
2023-04-13T03:14:29.319Z,10.00
2023-04-13T03:17:01.199Z,9.98
2023-04-13T03:19:37.385Z,9.97
2023-04-13T03:22:04.680Z,9.97
2023-04-13T03:24:34.612Z,9.96
2023-04-13T03:27:04.988Z,9.95
2023-04-13T03:29:36.596Z,9.94
2023-04-13T03:32:04.865Z,9.95
2023-04-13T03:34:33.300Z,9.96
2023-04-13T03:37:02.257Z,9.95
2023-04-13T03:39:32.254Z,9.96
2023-04-13T03:41:59.079Z,9.96
2023-04-13T03:44:26.656Z,9.97
2023-04-13T03:46:53.778Z,9.99
2023-04-13T03:49:24.778Z,9.98
2023-04-13T03:51:56.833Z,9.97
2023-04-13T03:54:25.269Z,9.96
2023-04-13T03:56:53.137Z,9.96
2023-04-13T03:59:20.057Z,9.97
2023-04-13T04:01:47.485Z,9.96
2023-04-13T04:04:15.694Z,9.96
2023-04-13T04:06:45.381Z,9.94
2023-04-13T04:09:13.974Z,9.95
2023-04-13T04:11:44.597Z,9.94
2023-04-13T04:14:12.480Z,9.95
2023-04-13T04:16:47.512Z,9.96
2023-04-13T04:19:15.871Z,9.97
2023-04-13T04:21:44.231Z,9.99
2023-04-13T04:24:21.920Z,10.01
2023-04-13T04:26:54.392Z,10.02
2023-04-13T04:29:21.707Z,10.02
2023-04-13T04:31:52.738Z,10.03
2023-04-13T04:34:22.522Z,10.06
2023-04-13T04:36:50.536Z,10.07
2023-04-13T04:39:21.690Z,10.08
2023-04-13T04:42:02.354Z,10.08
2023-04-13T04:44:32.202Z,10.10
2023-04-13T04:47:03.552Z,10.12
2023-04-13T04:49:31.664Z,10.15
2023-04-13T04:51:58.805Z,10.16
2023-04-13T04:54:26.018Z,10.18
2023-04-13T04:56:52.974Z,10.21
2023-04-13T04:59:21.040Z,10.27
2023-04-13T05:01:56.814Z,10.33
2023-04-13T05:04:23.878Z,10.40
2023-04-13T05:06:52.492Z,10.47
2023-04-13T05:09:22.758Z,10.55
2023-04-13T05:11:53.967Z,10.65
2023-04-13T05:14:21.137Z,10.74
2023-04-13T05:16:51.457Z,10.82
2023-04-13T05:19:29.084Z,10.89
2023-04-13T05:22:02.259Z,10.93
2023-04-13T05:24:35.522Z,10.96
2023-04-13T05:27:03.415Z,11.00
2023-04-13T05:29:32.918Z,11.05
2023-04-13T05:32:00.073Z,11.12
2023-04-13T05:34:28.204Z,11.21
2023-04-13T05:37:32.136Z,11.34
2023-04-13T05:39:59.708Z,11.42
2023-04-13T05:42:32.459Z,11.51
2023-04-13T05:45:00.159Z,11.58
2023-04-13T05:47:28.319Z,11.64
2023-04-13T05:49:58.168Z,11.71
2023-04-13T05:52:26.560Z,11.76
2023-04-13T05:54:54.154Z,11.82
2023-04-13T05:57:22.503Z,11.89
2023-04-13T05:59:51.459Z,11.93
2023-04-13T06:02:21.984Z,11.96
2023-04-13T06:04:52.942Z,11.99
2023-04-13T06:07:21.200Z,12.02
2023-04-13T06:09:49.016Z,12.05
2023-04-13T06:12:21.016Z,12.07
2023-04-13T06:14:49.117Z,12.11
2023-04-13T06:17:16.160Z,12.15
2023-04-13T06:19:43.867Z,12.17
2023-04-13T06:22:10.908Z,12.19
2023-04-13T06:24:39.214Z,12.21
2023-04-13T06:27:07.357Z,12.22
2023-04-13T06:29:36.017Z,12.23
2023-04-13T06:32:07.225Z,12.26
2023-04-13T06:34:35.169Z,12.29
2023-04-13T06:37:02.668Z,12.30
2023-04-13T06:39:33.017Z,12.30
2023-04-13T06:42:00.858Z,12.30
2023-04-13T06:44:54.334Z,12.29
2023-04-13T06:47:21.446Z,12.28
2023-04-13T06:49:51.516Z,12.28
2023-04-13T06:52:18.422Z,12.32
2023-04-13T06:54:45.353Z,12.35
2023-04-13T06:57:33.427Z,12.39
2023-04-13T07:00:00.463Z,12.43
2023-04-13T07:02:31.124Z,12.47
2023-04-13T07:05:01.230Z,12.51
2023-04-13T07:07:30.184Z,12.55
2023-04-13T07:09:58.856Z,12.61
2023-04-13T07:12:34.473Z,12.68
2023-04-13T07:15:02.304Z,12.74
2023-04-13T07:17:32.315Z,12.80
2023-04-13T07:20:03.648Z,12.84
2023-04-13T07:22:33.087Z,12.87
2023-04-13T07:25:00.814Z,12.90
2023-04-13T07:27:28.279Z,12.94
2023-04-13T07:29:56.156Z,13.00
2023-04-13T07:32:30.921Z,13.12
2023-04-13T07:35:00.874Z,13.28
2023-04-13T07:37:31.560Z,13.42
2023-04-13T07:39:59.794Z,13.56
2023-04-13T07:42:28.391Z,13.69
2023-04-13T07:44:59.137Z,13.79
2023-04-13T07:47:26.972Z,13.86
2023-04-13T07:49:57.018Z,13.91
2023-04-13T07:52:24.216Z,13.94
2023-04-13T07:54:52.507Z,13.95
2023-04-13T07:57:20.955Z,14.00
2023-04-13T07:59:51.248Z,14.05
2023-04-13T08:02:19.990Z,14.06
2023-04-13T08:04:47.248Z,14.07
2023-04-13T08:07:18.215Z,14.06
2023-04-13T08:09:47.950Z,14.03
2023-04-13T08:12:16.118Z,13.99
2023-04-13T08:14:47.747Z,13.94
2023-04-13T08:17:18.065Z,13.91
2023-04-13T08:19:45.841Z,13.89
2023-04-13T08:22:15.479Z,13.88
2023-04-13T08:24:45.647Z,13.87
2023-04-13T08:27:12.683Z,13.86
2023-04-13T08:29:39.502Z,13.86
2023-04-13T08:32:06.875Z,13.88
2023-04-13T08:34:34.535Z,13.91
2023-04-13T08:37:01.906Z,13.93
2023-04-13T08:39:41.045Z,13.95
2023-04-13T08:42:09.283Z,13.96
2023-04-13T08:44:40.056Z,13.98
2023-04-13T08:47:16.600Z,13.99
2023-04-13T08:49:44.264Z,14.01
2023-04-13T08:52:17.003Z,14.04
2023-04-13T08:54:48.736Z,14.07
2023-04-13T08:57:20.593Z,14.09
2023-04-13T08:59:51.789Z,14.14
2023-04-13T09:02:25.807Z,14.19
2023-04-13T09:04:59.241Z,14.26
2023-04-13T09:07:31.829Z,14.33
2023-04-13T09:10:03.581Z,14.40
2023-04-13T09:12:33.635Z,14.46
2023-04-13T09:15:02.644Z,14.56
2023-04-13T09:17:31.859Z,14.68
2023-04-13T09:20:23.781Z,14.81
2023-04-13T09:22:52.648Z,14.95
2023-04-13T09:25:23.799Z,15.08
2023-04-13T09:27:51.675Z,15.17
2023-04-13T09:30:21.070Z,15.25
2023-04-13T09:33:11.080Z,15.29
2023-04-13T09:35:41.764Z,15.30
2023-04-13T09:38:11.228Z,15.31
2023-04-13T09:40:47.682Z,15.30
2023-04-13T09:43:15.021Z,15.28
2023-04-13T09:45:43.879Z,15.25
2023-04-13T09:48:21.274Z,15.21
2023-04-13T09:51:01.542Z,15.14
2023-04-13T09:53:39.954Z,15.07
2023-04-13T09:56:07.146Z,14.99
2023-04-13T09:58:40.525Z,14.92
2023-04-13T10:01:09.717Z,14.85
2023-04-13T10:03:37.461Z,14.77
2023-04-13T10:06:07.215Z,14.68
2023-04-13T10:08:39.060Z,14.62
2023-04-13T10:11:10.991Z,14.56
2023-04-13T10:13:51.089Z,14.51
2023-04-13T10:16:21.201Z,14.48
2023-04-13T10:19:07.682Z,14.45
2023-04-13T10:21:39.403Z,14.45
2023-04-13T10:24:11.721Z,14.46
2023-04-13T10:26:41.163Z,14.48
2023-04-13T10:29:09.587Z,14.51
2023-04-13T10:31:39.582Z,14.54
2023-04-13T10:34:10.136Z,14.55
2023-04-13T10:36:38.588Z,14.53
2023-04-13T10:39:05.622Z,14.50
2023-04-13T10:41:32.757Z,14.46
2023-04-13T10:44:01.811Z,14.42
2023-04-13T10:46:29.096Z,14.35
2023-04-13T10:48:59.833Z,14.28
2023-04-13T10:51:43.630Z,14.20
2023-04-13T10:54:12.486Z,14.12
2023-04-13T10:56:39.750Z,14.05
2023-04-13T10:59:07.541Z,13.99
2023-04-13T11:01:35.255Z,13.96
2023-04-13T11:04:06.073Z,13.94
2023-04-13T11:06:38.460Z,13.92
2023-04-13T11:09:06.200Z,13.91
2023-04-13T11:11:35.108Z,13.87
2023-04-13T11:14:04.443Z,13.83
2023-04-13T11:16:43.678Z,13.77
2023-04-13T11:19:11.310Z,13.70
2023-04-13T11:21:38.204Z,13.63
2023-04-13T11:24:05.300Z,13.55
2023-04-13T11:26:38.206Z,13.49
2023-04-13T11:29:16.963Z,13.42
2023-04-13T11:31:46.171Z,13.37
2023-04-13T11:34:13.442Z,13.34
2023-04-13T11:36:40.458Z,13.30
2023-04-13T11:39:10.142Z,13.25
2023-04-13T11:41:43.885Z,13.24
2023-04-13T11:44:11.848Z,13.21
2023-04-13T11:46:38.943Z,13.16
2023-04-13T11:49:05.956Z,13.12
2023-04-13T11:51:33.439Z,13.09
2023-04-13T11:54:00.575Z,13.06
2023-04-13T11:56:27.402Z,13.05
2023-04-13T11:58:54.356Z,13.06
2023-04-13T12:01:26.100Z,13.03
2023-04-13T12:04:12.851Z,12.99
2023-04-13T12:06:44.964Z,12.95
2023-04-13T12:09:17.310Z,12.90
2023-04-13T12:12:15.941Z,12.86
2023-04-13T12:14:54.845Z,12.85
2023-04-13T12:20:03.997Z,12.82
2023-04-13T12:22:50.817Z,12.81
2023-04-13T12:25:24.250Z,12.80
2023-04-13T12:27:52.190Z,12.77
2023-04-13T12:30:20.668Z,12.74
2023-04-13T12:32:53.515Z,12.72
2023-04-13T12:35:21.004Z,12.72
2023-04-13T12:37:48.631Z,12.73
2023-04-13T12:40:16.343Z,12.76
2023-04-13T12:42:48.076Z,12.79
2023-04-13T12:45:16.062Z,12.82
2023-04-13T12:47:43.100Z,12.85
2023-04-13T12:50:11.028Z,12.87
2023-04-13T12:52:41.804Z,12.88
2023-04-13T12:55:09.361Z,12.89
2023-04-13T12:57:41.202Z,12.88
2023-04-13T13:00:10.625Z,12.86
2023-04-13T13:02:39.385Z,12.84
2023-04-13T13:05:08.713Z,12.85
2023-04-13T13:07:35.578Z,12.88
2023-04-13T13:10:25.880Z,12.89
2023-04-13T13:12:59.997Z,12.92
2023-04-13T13:15:27.134Z,12.96
2023-04-13T13:17:54.979Z,12.99
2023-04-13T13:20:21.977Z,13.02
2023-04-13T13:22:49.058Z,13.06
2023-04-13T13:25:16.527Z,13.08
2023-04-13T13:30:13.893Z,13.11
2023-04-13T13:32:42.732Z,13.11
2023-04-13T13:35:10.218Z,13.15
2023-04-13T13:37:39.174Z,13.19
2023-04-13T13:40:12.351Z,13.20
2023-04-13T13:42:50.178Z,13.20
2023-04-13T13:45:17.938Z,13.20
2023-04-13T13:47:49.557Z,13.19
2023-04-13T13:50:16.651Z,13.15
2023-04-13T13:53:01.690Z,13.10
2023-04-13T13:55:31.755Z,13.07
2023-04-13T13:57:59.559Z,13.05
2023-04-13T14:00:26.453Z,13.06
2023-04-13T14:02:53.744Z,13.06
2023-04-13T14:05:21.636Z,13.05
2023-04-13T14:07:49.252Z,13.06
2023-04-13T14:10:16.846Z,13.07
2023-04-13T14:12:47.405Z,13.06
2023-04-13T14:15:21.200Z,13.06
2023-04-13T14:17:55.827Z,13.07
2023-04-13T14:20:34.224Z,13.08
2023-04-13T14:23:01.162Z,13.08
2023-04-13T14:25:28.749Z,13.10
2023-04-13T14:27:56.514Z,13.10
2023-04-13T14:30:24.966Z,13.10
2023-04-13T14:32:54.204Z,13.10
2023-04-13T14:35:21.678Z,13.10
2023-04-13T14:37:48.785Z,13.11
2023-04-13T14:40:21.241Z,13.11
2023-04-13T14:42:53.276Z,13.09
2023-04-13T14:45:20.480Z,13.07
2023-04-13T14:47:47.549Z,13.05
2023-04-13T14:50:15.644Z,13.02
2023-04-13T14:52:44.310Z,13.01
2023-04-13T14:55:12.681Z,12.98
2023-04-13T14:57:41.026Z,12.95
2023-04-13T15:00:22.047Z,12.93
2023-04-13T15:03:10.653Z,12.91
2023-04-13T15:05:39.590Z,12.91
2023-04-13T15:08:07.655Z,12.89
2023-04-13T15:10:34.847Z,12.86
2023-04-13T15:13:07.782Z,12.82
2023-04-13T15:15:36.160Z,12.75
2023-04-13T15:18:03.734Z,12.70
2023-04-13T15:20:34.948Z,12.67
2023-04-13T15:23:02.881Z,12.65
2023-04-13T15:25:30.356Z,12.62
2023-04-13T15:27:58.675Z,12.59
2023-04-13T15:30:28.009Z,12.56
2023-04-13T15:32:57.873Z,12.52
2023-04-13T15:35:27.006Z,12.49
2023-04-13T15:37:54.564Z,12.47
2023-04-13T15:40:24.456Z,12.45
2023-04-13T15:42:51.517Z,12.44
2023-04-13T15:45:20.254Z,12.42
2023-04-13T15:47:47.282Z,12.39
2023-04-13T15:50:14.740Z,12.37
2023-04-13T15:52:41.912Z,12.35
2023-04-13T15:55:09.430Z,12.32
2023-04-13T15:57:36.576Z,12.28
2023-04-13T16:00:06.652Z,12.26
2023-04-13T16:02:35.111Z,12.27
2023-04-13T16:05:03.244Z,12.28
2023-04-13T16:07:30.445Z,12.28
2023-04-13T16:09:57.841Z,12.28
2023-04-13T16:12:31.273Z,12.29
2023-04-13T16:14:58.979Z,12.29
2023-04-13T16:17:31.568Z,12.28
2023-04-13T16:20:12.770Z,12.24
2023-04-13T16:22:41.509Z,12.22
2023-04-13T16:25:15.003Z,12.19
2023-04-13T16:27:42.880Z,12.18
2023-04-13T16:30:12.344Z,12.17
2023-04-13T16:32:45.848Z,12.16
2023-04-13T16:35:12.873Z,12.15
2023-04-13T16:37:41.775Z,12.12
2023-04-13T16:40:12.728Z,12.10
2023-04-13T16:42:41.123Z,12.09
2023-04-13T16:45:10.287Z,12.08
2023-04-13T16:47:41.380Z,12.07
2023-04-13T16:50:10.234Z,12.06
2023-04-13T16:52:38.329Z,12.05
2023-04-13T16:55:06.014Z,12.04
2023-04-13T16:57:33.207Z,12.03
2023-04-13T17:00:10.228Z,12.01
2023-04-13T17:02:39.932Z,12.02
2023-04-13T17:05:08.394Z,12.02
2023-04-13T17:07:38.021Z,12.01
2023-04-13T17:10:20.935Z,12.00
2023-04-13T17:12:49.647Z,12.00
2023-04-13T17:15:18.421Z,12.00
2023-04-13T17:17:45.900Z,11.99
2023-04-13T17:20:16.925Z,11.99
2023-04-13T17:22:44.670Z,11.99
2023-04-13T17:25:18.830Z,11.98
2023-04-13T17:27:46.872Z,11.96
2023-04-13T17:30:14.099Z,11.93
2023-04-13T17:32:57.107Z,11.90
2023-04-13T17:35:23.980Z,11.88
2023-04-13T17:37:51.006Z,11.87
2023-04-13T17:40:19.922Z,11.87
2023-04-13T17:42:47.430Z,11.86
2023-04-13T17:45:17.881Z,11.85
2023-04-13T17:47:48.849Z,11.84
2023-04-13T17:50:17.831Z,11.82
2023-04-13T17:52:44.681Z,11.81
2023-04-13T17:55:15.537Z,11.81
2023-04-13T17:57:43.158Z,11.82
2023-04-13T18:00:11.471Z,11.82
2023-04-13T18:02:58.426Z,11.83
2023-04-13T18:05:27.292Z,11.81
2023-04-13T18:07:54.167Z,11.78
2023-04-13T18:10:21.070Z,11.76
2023-04-13T18:12:53.113Z,11.75
2023-04-13T18:15:21.298Z,11.75
2023-04-13T18:17:48.166Z,11.75
2023-04-13T18:20:15.184Z,11.74
2023-04-13T18:22:42.743Z,11.75
2023-04-13T18:25:09.895Z,11.74
2023-04-13T18:27:36.881Z,11.71
2023-04-13T18:30:08.319Z,11.72
2023-04-13T18:32:36.903Z,11.71
2023-04-13T18:35:04.197Z,11.70
2023-04-13T18:37:31.540Z,11.69
2023-04-13T18:39:58.695Z,11.68
2023-04-13T18:42:25.755Z,11.66
2023-04-13T18:44:56.316Z,11.63
2023-04-13T18:47:25.133Z,11.62
2023-04-13T18:49:51.944Z,11.60
2023-04-13T18:52:19.077Z,11.57
2023-04-13T18:54:48.109Z,11.55
2023-04-13T18:57:15.006Z,11.54
2023-04-13T18:59:44.614Z,11.53
2023-04-13T19:02:41.758Z,11.51
2023-04-13T19:05:11.582Z,11.51
2023-04-13T19:07:56.721Z,11.50
2023-04-13T19:10:24.717Z,11.49
2023-04-13T19:12:52.264Z,11.48
2023-04-13T19:15:24.576Z,11.48
2023-04-13T19:17:52.906Z,11.47
2023-04-13T19:20:21.518Z,11.47
2023-04-13T19:22:48.558Z,11.46
2023-04-13T19:25:17.585Z,11.43
2023-04-13T19:27:47.112Z,11.41
2023-04-13T19:30:15.350Z,11.38
2023-04-13T19:32:44.540Z,11.34
2023-04-13T19:35:12.115Z,11.31
2023-04-13T19:37:39.097Z,11.28
2023-04-13T19:40:12.551Z,11.27
2023-04-13T19:42:42.182Z,11.25
2023-04-13T19:45:09.172Z,11.24
2023-04-13T19:47:39.072Z,11.24
2023-04-13T19:50:09.317Z,11.22
2023-04-13T19:52:36.615Z,11.21
2023-04-13T19:55:03.642Z,11.20
2023-04-13T19:57:31.232Z,11.19
2023-04-13T19:59:57.994Z,11.16
2023-04-13T20:02:25.070Z,11.12
2023-04-13T20:04:53.337Z,11.09
2023-04-13T20:07:20.171Z,11.06
2023-04-13T20:09:46.967Z,11.04
2023-04-13T20:12:21.221Z,11.03
2023-04-13T20:14:48.817Z,11.04
2023-04-13T20:17:15.816Z,11.04
2023-04-13T20:19:44.399Z,11.04
2023-04-13T20:22:13.018Z,11.04
2023-04-13T20:24:39.888Z,11.02
2023-04-13T20:27:09.417Z,11.01
2023-04-13T20:29:36.908Z,11.02
2023-04-13T20:32:07.941Z,11.03
2023-04-13T20:34:37.198Z,11.04
2023-04-13T20:37:09.121Z,11.04
2023-04-13T20:39:49.473Z,11.04
2023-04-13T20:42:20.598Z,11.03
2023-04-13T20:44:56.700Z,11.02
2023-04-13T20:47:27.876Z,11.02
2023-04-13T20:49:56.823Z,11.01
2023-04-13T20:52:23.851Z,11.00
2023-04-13T20:54:50.881Z,11.00
2023-04-13T20:57:19.297Z,10.99
2023-04-13T20:59:47.449Z,10.98
2023-04-13T21:02:15.146Z,10.96
2023-04-13T21:04:43.245Z,10.96
2023-04-13T21:07:10.968Z,10.95
2023-04-13T21:09:38.891Z,10.92
2023-04-13T21:12:06.681Z,10.91
2023-04-13T21:14:33.524Z,10.89
2023-04-13T21:17:00.716Z,10.88
2023-04-13T21:19:27.659Z,10.86
2023-04-13T21:21:56.833Z,10.85
2023-04-13T21:24:24.791Z,10.85
2023-04-13T21:26:52.351Z,10.85
2023-04-13T21:29:19.652Z,10.84
2023-04-13T21:31:47.227Z,10.83
2023-04-13T21:34:15.463Z,10.80
2023-04-13T21:39:15.416Z,10.76
2023-04-13T21:41:42.227Z,10.75
2023-04-13T21:44:19.128Z,10.74
2023-04-13T21:46:56.083Z,10.74
2023-04-13T21:49:22.986Z,10.74
2023-04-13T21:51:50.114Z,10.73
2023-04-13T21:54:17.064Z,10.73
2023-04-13T21:56:43.809Z,10.74
2023-04-13T21:59:10.849Z,10.75
2023-04-13T22:01:38.111Z,10.74
2023-04-13T22:04:05.834Z,10.72
2023-04-13T22:06:32.894Z,10.70
2023-04-13T22:09:01.495Z,10.70
2023-04-13T22:11:28.939Z,10.68
2023-04-13T22:13:55.791Z,10.67
2023-04-13T22:16:22.881Z,10.67
2023-04-13T22:18:51.532Z,10.66
2023-04-13T22:21:18.373Z,10.65
2023-04-13T22:23:47.652Z,10.64
2023-04-13T22:26:14.505Z,10.62
2023-04-13T22:28:41.272Z,10.61
2023-04-13T22:31:11.638Z,10.61
2023-04-13T22:33:39.921Z,10.61
2023-04-13T22:36:16.017Z,10.60
2023-04-13T22:38:47.356Z,10.57
2023-04-13T22:41:15.128Z,10.54
2023-04-13T22:43:42.434Z,10.52
2023-04-13T22:46:10.206Z,10.48
2023-04-13T22:48:37.704Z,10.46
2023-04-13T22:51:04.712Z,10.43
2023-04-13T22:53:31.775Z,10.40
2023-04-13T22:56:00.036Z,10.38
2023-04-13T22:58:27.561Z,10.38
2023-04-13T23:00:55.140Z,10.37
2023-04-13T23:03:23.919Z,10.35
2023-04-13T23:05:52.281Z,10.35
2023-04-13T23:08:19.089Z,10.35
2023-04-13T23:10:46.059Z,10.34
2023-04-13T23:13:13.041Z,10.33
2023-04-13T23:15:40.473Z,10.32
2023-04-13T23:18:08.044Z,10.29
2023-04-13T23:20:35.369Z,10.30
2023-04-13T23:23:02.325Z,10.31
2023-04-13T23:25:29.725Z,10.31
2023-04-13T23:27:56.657Z,10.30
2023-04-13T23:30:23.497Z,10.29
2023-04-13T23:32:51.016Z,10.27
2023-04-13T23:35:18.162Z,10.25
2023-04-13T23:37:45.589Z,10.24
2023-04-13T23:40:13.277Z,10.24
2023-04-13T23:42:40.601Z,10.23
2023-04-13T23:45:11.829Z,10.22
2023-04-13T23:47:39.335Z,10.21
2023-04-13T23:50:07.006Z,10.21
2023-04-13T23:52:33.937Z,10.22
2023-04-13T23:55:01.015Z,10.23
2023-04-13T23:57:33.063Z,10.23
